Franklin, Tennessee
Current Conditions -  °F | °C
As of 4:53 PM on Sunday 21 Dec 2014 (Local Time) from KBNA Reporting Station
Broken Clouds Broken Clouds  
Wind Chill: 51°   Ceiling: 4500
Heat Index: 51°   Visibility: 10mi
Dew Point: 37°   Wind: 3mph
Humidity: 59%   Direction: 160°SSE
Pressure: 30.08"   Gusts: NA
Location:  35.92°N, 86.87°W
Report Text: KBNA 212253Z 16003KT 10SM BKN045 BKN055 11/03 A3008 RMK AO2 SLP188 T01060028
Loading
Personal Weather Stations






























Interactive Weather Map New forecast layout! Learn more

10-Day Weather Forecast

Advertisements
Track Severe Weather on mobile